createdAt,value
2017-11-07T00:00:49.581Z,4.00
2017-11-07T00:03:16.341Z,4.00
2017-11-07T00:05:43.084Z,3.90
2017-11-07T00:08:10.617Z,3.90
2017-11-07T00:10:37.357Z,3.80
2017-11-07T00:13:04.089Z,3.70
2017-11-07T00:15:30.835Z,3.70
2017-11-07T00:17:57.584Z,3.70
2017-11-07T00:20:24.336Z,3.70
2017-11-07T00:22:51.141Z,3.60
2017-11-07T00:25:17.892Z,3.50
2017-11-07T00:27:44.654Z,3.50
2017-11-07T00:30:12.156Z,3.40
2017-11-07T00:32:38.888Z,3.30
2017-11-07T00:35:05.641Z,3.30
2017-11-07T00:37:32.388Z,3.30
2017-11-07T00:39:59.135Z,3.20
2017-11-07T00:42:25.873Z,3.20
2017-11-07T00:44:52.643Z,3.20
2017-11-07T00:47:20.332Z,3.00
2017-11-07T00:49:47.098Z,2.90
2017-11-07T00:52:13.823Z,3.00
2017-11-07T00:54:40.581Z,2.90
2017-11-07T00:57:07.331Z,2.80
2017-11-07T00:59:34.109Z,2.70
2017-11-07T01:02:00.944Z,2.70
2017-11-07T01:04:27.694Z,2.70
2017-11-07T01:06:55.208Z,2.60
2017-11-07T01:09:21.979Z,2.50
2017-11-07T01:11:48.701Z,2.50
2017-11-07T01:14:15.456Z,2.50
2017-11-07T01:16:42.965Z,2.40
2017-11-07T01:19:09.718Z,2.30
2017-11-07T01:21:36.449Z,2.40
2017-11-07T01:24:03.200Z,2.40
2017-11-07T01:26:29.963Z,2.40
2017-11-07T01:28:56.704Z,2.30
2017-11-07T01:31:23.469Z,2.30
2017-11-07T01:33:50.233Z,2.30
2017-11-07T01:36:16.979Z,2.30
2017-11-07T01:38:43.736Z,2.30
2017-11-07T01:41:10.476Z,2.30
2017-11-07T01:43:37.233Z,2.30
2017-11-07T01:46:03.978Z,2.30
2017-11-07T01:48:31.044Z,2.30
2017-11-07T01:50:58.548Z,2.30
2017-11-07T01:53:25.399Z,2.20
2017-11-07T01:55:52.173Z,2.30
2017-11-07T01:58:19.667Z,2.40
2017-11-07T02:00:46.404Z,2.30
2017-11-07T02:03:13.133Z,2.40
2017-11-07T02:05:39.890Z,2.40
2017-11-07T02:08:06.646Z,2.40
2017-11-07T02:10:33.369Z,2.40
2017-11-07T02:13:00.096Z,2.30
2017-11-07T02:15:26.882Z,2.30
2017-11-07T02:17:53.616Z,2.20
2017-11-07T02:20:20.397Z,2.20
2017-11-07T02:22:47.133Z,2.10
2017-11-07T02:25:14.629Z,2.10
2017-11-07T02:27:41.372Z,2.00
2017-11-07T02:30:08.107Z,2.10
2017-11-07T02:32:34.851Z,2.10
2017-11-07T02:35:01.616Z,2.10
2017-11-07T02:37:28.367Z,2.00
2017-11-07T02:39:55.115Z,2.00
2017-11-07T02:42:22.621Z,2.00
2017-11-07T02:44:49.381Z,2.00
2017-11-07T02:47:16.106Z,2.00
2017-11-07T02:49:42.884Z,2.00
2017-11-07T02:52:09.609Z,1.90
2017-11-07T02:54:36.366Z,1.90
2017-11-07T02:57:03.888Z,1.80
2017-11-07T02:59:30.628Z,1.80
2017-11-07T03:01:57.394Z,1.80
2017-11-07T03:04:24.918Z,1.60
2017-11-07T03:06:51.683Z,1.60
2017-11-07T03:09:18.430Z,1.60
2017-11-07T03:11:45.155Z,1.60
2017-11-07T03:14:11.905Z,1.50
2017-11-07T03:16:39.438Z,1.50
2017-11-07T03:19:06.223Z,1.40
2017-11-07T03:21:32.972Z,1.50
2017-11-07T03:23:59.701Z,1.40
2017-11-07T03:26:26.449Z,1.50
2017-11-07T03:28:53.203Z,1.50
2017-11-07T03:31:19.932Z,1.40
2017-11-07T03:33:46.664Z,1.50
2017-11-07T03:36:13.423Z,1.40
2017-11-07T03:38:40.160Z,1.40
2017-11-07T03:41:07.085Z,1.50
2017-11-07T03:43:33.850Z,1.50
2017-11-07T03:46:00.594Z,1.50
2017-11-07T03:48:27.330Z,1.50
2017-11-07T03:50:54.075Z,1.50
2017-11-07T03:53:20.808Z,1.50
2017-11-07T03:55:47.726Z,1.40
2017-11-07T03:58:14.452Z,1.40
2017-11-07T04:00:41.198Z,1.50
2017-11-07T04:03:07.948Z,1.40
2017-11-07T04:05:34.684Z,1.40
2017-11-07T04:08:01.432Z,1.40
2017-11-07T04:10:28.252Z,1.30
2017-11-07T04:12:55.753Z,1.30
2017-11-07T04:15:22.488Z,1.20
2017-11-07T04:17:49.249Z,1.30
2017-11-07T04:20:15.977Z,1.20
2017-11-07T04:22:42.879Z,1.10
2017-11-07T04:25:09.639Z,1.10
2017-11-07T04:27:36.493Z,1.10
2017-11-07T04:30:03.250Z,1.10
2017-11-07T04:32:29.972Z,1.10
2017-11-07T04:34:56.725Z,1.10
2017-11-07T04:37:23.492Z,1.10
2017-11-07T04:39:51.004Z,1.10
2017-11-07T04:42:17.754Z,1.00
2017-11-07T04:44:44.485Z,1.10
2017-11-07T04:47:11.232Z,1.10
2017-11-07T04:49:38.009Z,1.10
2017-11-07T04:52:05.679Z,1.00
2017-11-07T04:54:32.451Z,1.00
2017-11-07T04:56:59.188Z,1.00
2017-11-07T04:59:25.939Z,1.00
2017-11-07T05:01:52.676Z,1.00
2017-11-07T05:04:19.436Z,0.90
2017-11-07T05:06:46.194Z,0.90
2017-11-07T05:09:13.865Z,0.80
2017-11-07T05:11:41.393Z,0.80
2017-11-07T05:14:08.118Z,0.70
2017-11-07T05:16:34.856Z,0.80
2017-11-07T05:19:01.605Z,0.80
2017-11-07T05:21:28.440Z,0.80
2017-11-07T05:23:55.180Z,0.80
2017-11-07T05:26:21.992Z,0.70
2017-11-07T05:28:48.728Z,0.70
2017-11-07T05:31:15.492Z,0.70
2017-11-07T05:33:42.236Z,0.70
2017-11-07T05:36:09.000Z,0.70
2017-11-07T05:38:36.526Z,0.70
2017-11-07T05:41:03.259Z,0.70
2017-11-07T05:43:30.004Z,0.80
2017-11-07T05:45:56.741Z,0.80
2017-11-07T05:48:23.493Z,0.80
2017-11-07T05:50:51.012Z,0.80
2017-11-07T05:53:17.835Z,0.70
2017-11-07T05:55:44.548Z,0.80
2017-11-07T05:58:12.091Z,0.80
2017-11-07T06:00:38.829Z,0.70
2017-11-07T06:03:05.564Z,0.70
2017-11-07T06:05:32.324Z,0.70
2017-11-07T06:07:59.827Z,0.70
2017-11-07T06:10:26.594Z,0.60
2017-11-07T06:12:53.362Z,0.70
2017-11-07T06:15:20.133Z,0.70
2017-11-07T06:17:46.886Z,0.70
2017-11-07T06:20:13.624Z,0.80
2017-11-07T06:22:40.366Z,0.80
2017-11-07T06:25:07.134Z,0.90
2017-11-07T06:27:33.883Z,0.90
2017-11-07T06:30:00.624Z,0.90
2017-11-07T06:32:27.416Z,0.90
2017-11-07T06:34:54.177Z,0.90
2017-11-07T06:37:20.923Z,1.00
2017-11-07T06:39:47.653Z,1.10
2017-11-07T06:42:14.420Z,1.20
2017-11-07T06:44:41.170Z,1.20
2017-11-07T06:47:08.864Z,1.20
2017-11-07T06:49:35.657Z,1.20
2017-11-07T06:52:02.359Z,1.30
2017-11-07T06:54:29.120Z,1.30
2017-11-07T06:56:55.856Z,1.40
2017-11-07T06:59:22.623Z,1.50
2017-11-07T07:01:49.384Z,1.60
2017-11-07T07:04:16.342Z,1.70
2017-11-07T07:06:43.108Z,1.80
2017-11-07T07:09:09.846Z,1.90
2017-11-07T07:11:36.613Z,2.00
2017-11-07T07:14:03.352Z,2.10
2017-11-07T07:16:30.127Z,2.10
2017-11-07T07:18:56.864Z,2.10
2017-11-07T07:21:23.610Z,2.00
2017-11-07T07:23:50.341Z,2.00
2017-11-07T07:26:17.116Z,2.00
2017-11-07T07:28:43.855Z,2.00
2017-11-07T07:31:10.600Z,2.00
2017-11-07T07:33:37.392Z,2.00
2017-11-07T07:36:04.932Z,2.10
2017-11-07T07:38:31.673Z,2.00
2017-11-07T07:40:59.188Z,2.10
2017-11-07T07:43:25.944Z,2.00
2017-11-07T07:45:52.684Z,2.20
2017-11-07T07:48:20.186Z,2.30
2017-11-07T07:50:46.937Z,2.20
2017-11-07T07:53:13.667Z,2.30
2017-11-07T07:55:40.440Z,2.40
2017-11-07T07:58:07.169Z,2.50
2017-11-07T08:00:33.929Z,2.50
2017-11-07T08:03:00.686Z,2.60
2017-11-07T08:05:27.433Z,2.70
2017-11-07T08:07:54.161Z,2.80
2017-11-07T08:10:20.918Z,2.90
2017-11-07T08:12:47.646Z,3.00
2017-11-07T08:15:14.409Z,3.10
2017-11-07T08:17:41.931Z,3.30
2017-11-07T08:20:08.816Z,3.20
2017-11-07T08:22:36.423Z,3.50
2017-11-07T08:25:03.161Z,3.40
2017-11-07T08:27:29.920Z,3.60
2017-11-07T08:29:56.672Z,3.70
2017-11-07T08:32:24.183Z,3.90
2017-11-07T08:34:50.930Z,3.80
2017-11-07T08:37:17.698Z,4.00
2017-11-07T08:39:44.491Z,4.10
2017-11-07T08:42:11.223Z,4.10
2017-11-07T08:44:37.956Z,4.20
2017-11-07T08:47:04.711Z,4.30
2017-11-07T08:49:31.524Z,4.40
2017-11-07T08:51:58.252Z,4.50
2017-11-07T08:54:25.756Z,4.70
2017-11-07T08:56:52.545Z,4.60
2017-11-07T08:59:19.264Z,4.80
2017-11-07T09:01:46.161Z,4.80
2017-11-07T09:04:12.876Z,4.80
2017-11-07T09:06:41.896Z,4.90
2017-11-07T09:09:08.663Z,4.90
2017-11-07T09:11:35.437Z,4.90
2017-11-07T09:14:03.048Z,4.90
2017-11-07T09:16:29.797Z,4.90
2017-11-07T09:18:56.586Z,4.90
2017-11-07T09:21:23.330Z,4.90
2017-11-07T09:23:50.824Z,4.80
2017-11-07T09:26:17.596Z,4.70
2017-11-07T09:28:44.325Z,4.70
2017-11-07T09:31:13.016Z,4.70
2017-11-07T09:33:40.533Z,4.80
2017-11-07T09:36:07.341Z,4.70
2017-11-07T09:38:34.080Z,4.90
2017-11-07T09:41:00.812Z,5.00
2017-11-07T09:43:28.344Z,5.20
2017-11-07T09:45:55.071Z,5.10
2017-11-07T09:48:21.856Z,5.20
2017-11-07T09:50:49.372Z,5.30
2017-11-07T09:53:16.097Z,5.30
2017-11-07T09:55:42.840Z,5.40
2017-11-07T09:58:09.593Z,5.50
2017-11-07T10:00:36.388Z,5.60
2017-11-07T10:03:03.140Z,5.70
2017-11-07T10:05:29.884Z,5.70
2017-11-07T10:07:56.623Z,5.70
2017-11-07T10:10:23.358Z,5.70
2017-11-07T10:12:50.116Z,5.70
2017-11-07T10:15:16.872Z,5.80
2017-11-07T10:17:43.605Z,5.80
2017-11-07T10:20:12.271Z,5.90
2017-11-07T10:22:39.005Z,5.90
2017-11-07T10:25:05.749Z,5.90
2017-11-07T10:27:32.504Z,6.00
2017-11-07T10:29:59.228Z,6.00
2017-11-07T10:32:25.946Z,6.00
2017-11-07T10:34:56.459Z,6.10
2017-11-07T10:37:23.209Z,6.10
2017-11-07T10:39:49.941Z,6.20
2017-11-07T10:42:16.704Z,6.20
2017-11-07T10:44:43.434Z,6.30
2017-11-07T10:47:10.206Z,6.40
2017-11-07T10:49:37.222Z,6.40
2017-11-07T10:52:03.980Z,6.40
2017-11-07T10:54:30.728Z,6.50
2017-11-07T10:56:57.489Z,6.60
2017-11-07T10:59:24.999Z,6.60
2017-11-07T11:01:51.763Z,6.50
2017-11-07T11:04:18.488Z,6.60
2017-11-07T11:06:45.222Z,6.60
2017-11-07T11:09:11.990Z,6.70
2017-11-07T11:11:39.612Z,6.80
2017-11-07T11:14:06.337Z,6.80
2017-11-07T11:16:33.098Z,6.90
2017-11-07T11:18:59.868Z,7.00
2017-11-07T11:21:27.393Z,7.20
2017-11-07T11:23:54.127Z,7.10
2017-11-07T11:26:20.889Z,7.20
2017-11-07T11:28:47.617Z,7.30
2017-11-07T11:31:14.402Z,7.40
2017-11-07T11:33:41.162Z,7.50
2017-11-07T11:36:07.978Z,7.50
2017-11-07T11:38:34.724Z,7.60
2017-11-07T11:41:01.459Z,7.60
2017-11-07T11:43:28.968Z,7.70
2017-11-07T11:45:55.718Z,7.60
2017-11-07T11:48:22.445Z,7.80
2017-11-07T11:50:49.200Z,7.90
2017-11-07T11:53:15.933Z,7.90
2017-11-07T11:55:42.716Z,7.90
2017-11-07T11:58:09.444Z,8.00
2017-11-07T12:00:36.957Z,8.10
2017-11-07T12:03:03.700Z,8.00
2017-11-07T12:05:30.489Z,8.20
2017-11-07T12:07:57.962Z,8.30
2017-11-07T12:10:24.721Z,8.20
2017-11-07T12:12:51.445Z,8.40
2017-11-07T12:15:18.191Z,8.50
2017-11-07T12:17:44.965Z,8.60
2017-11-07T12:20:11.857Z,8.60
2017-11-07T12:22:38.611Z,8.70
2017-11-07T12:25:05.361Z,8.70
2017-11-07T12:27:32.124Z,8.80
2017-11-07T12:29:59.620Z,8.80
2017-11-07T12:32:26.366Z,8.80
2017-11-07T12:34:53.123Z,8.80
2017-11-07T12:37:19.875Z,8.80
2017-11-07T12:39:46.619Z,8.90
2017-11-07T12:42:13.374Z,8.90
2017-11-07T12:44:40.141Z,8.90
2017-11-07T12:47:06.872Z,9.00
2017-11-07T12:49:34.394Z,9.10
2017-11-07T12:52:01.135Z,9.10
2017-11-07T12:54:27.941Z,9.10
2017-11-07T12:56:54.677Z,9.10
2017-11-07T12:59:21.442Z,9.10
2017-11-07T13:01:48.212Z,9.10
2017-11-07T13:04:14.971Z,9.10
2017-11-07T13:06:42.521Z,9.30
2017-11-07T13:09:09.245Z,9.20
2017-11-07T13:11:35.985Z,9.30
2017-11-07T13:14:02.753Z,9.30
2017-11-07T13:16:30.255Z,9.50
2017-11-07T13:18:57.008Z,9.50
2017-11-07T13:21:23.750Z,9.50
2017-11-07T13:23:50.512Z,9.50
2017-11-07T13:26:18.014Z,9.40
2017-11-07T13:28:44.798Z,9.40
2017-11-07T13:31:11.528Z,9.40
2017-11-07T13:33:38.296Z,9.50
2017-11-07T13:36:05.806Z,9.50
2017-11-07T13:38:32.566Z,9.40
2017-11-07T13:40:59.393Z,9.50
2017-11-07T13:43:26.134Z,9.50
2017-11-07T13:45:52.944Z,9.60
2017-11-07T13:48:19.705Z,9.50
2017-11-07T13:50:46.451Z,9.60
2017-11-07T13:53:13.261Z,9.50
2017-11-07T13:55:40.735Z,9.60
2017-11-07T13:58:07.543Z,9.50
2017-11-07T14:00:35.037Z,9.60
2017-11-07T14:03:01.765Z,9.50
2017-11-07T14:05:28.514Z,9.60
2017-11-07T14:07:55.287Z,9.70
2017-11-07T14:10:22.976Z,9.70
2017-11-07T14:12:49.733Z,9.70
2017-11-07T14:15:16.473Z,9.80
2017-11-07T14:17:43.245Z,9.80
2017-11-07T14:20:09.990Z,9.80
2017-11-07T14:22:36.757Z,9.90
2017-11-07T14:25:06.203Z,9.80
2017-11-07T14:27:32.946Z,9.80
2017-11-07T14:29:59.759Z,9.80
2017-11-07T14:32:27.309Z,9.60
2017-11-07T14:34:54.805Z,9.50
2017-11-07T14:37:21.547Z,9.50
2017-11-07T14:39:48.317Z,9.40
2017-11-07T14:42:15.834Z,9.40
2017-11-07T14:44:42.555Z,9.30
2017-11-07T14:47:09.309Z,9.30
2017-11-07T14:49:36.072Z,9.20
2017-11-07T14:52:02.869Z,9.10
2017-11-07T14:54:29.601Z,9.10
2017-11-07T14:56:56.369Z,9.00
2017-11-07T14:59:23.128Z,9.00
2017-11-07T15:01:49.871Z,8.90
2017-11-07T15:04:16.613Z,8.90
2017-11-07T15:06:43.344Z,8.80
2017-11-07T15:09:10.237Z,8.80
2017-11-07T15:11:37.799Z,8.70
2017-11-07T15:14:05.340Z,8.60
2017-11-07T15:16:32.884Z,8.50
2017-11-07T15:19:01.239Z,8.40
2017-11-07T15:21:27.989Z,8.40
2017-11-07T15:23:54.736Z,8.40
2017-11-07T15:26:22.331Z,8.30
2017-11-07T15:28:49.073Z,8.20
2017-11-07T15:31:15.821Z,8.30
2017-11-07T15:33:42.559Z,8.20
2017-11-07T15:36:09.421Z,8.20
2017-11-07T15:38:36.156Z,8.20
2017-11-07T15:41:02.904Z,8.20
2017-11-07T15:43:29.662Z,8.20
2017-11-07T15:45:56.408Z,8.00
2017-11-07T15:48:23.175Z,8.00
2017-11-07T15:50:50.664Z,7.80
2017-11-07T15:53:17.438Z,7.80
2017-11-07T15:55:44.184Z,7.80
2017-11-07T15:58:11.695Z,7.70
2017-11-07T16:00:38.466Z,7.70
2017-11-07T16:03:05.226Z,7.70
2017-11-07T16:05:32.751Z,7.50
2017-11-07T16:07:59.479Z,7.50
2017-11-07T16:10:26.225Z,7.40
2017-11-07T16:12:52.984Z,7.40
2017-11-07T16:15:19.739Z,7.40
2017-11-07T16:17:47.250Z,7.30
2017-11-07T16:20:13.988Z,7.30
2017-11-07T16:22:40.762Z,7.30
2017-11-07T16:25:07.493Z,7.20
2017-11-07T16:27:34.278Z,7.20
2017-11-07T16:30:00.998Z,7.20
2017-11-07T16:32:28.557Z,7.10
2017-11-07T16:34:56.061Z,7.00
2017-11-07T16:37:22.816Z,6.90
2017-11-07T16:39:49.552Z,7.00
2017-11-07T16:42:16.292Z,7.00
2017-11-07T16:44:43.043Z,7.00
2017-11-07T16:47:09.841Z,7.00
2017-11-07T16:49:36.580Z,7.10
2017-11-07T16:52:03.373Z,7.10
2017-11-07T16:54:31.023Z,7.10
2017-11-07T16:56:57.808Z,7.00
2017-11-07T16:59:26.263Z,7.00
2017-11-07T17:01:53.825Z,7.10
2017-11-07T17:04:21.335Z,7.10
2017-11-07T17:06:48.072Z,7.10
2017-11-07T17:09:14.822Z,7.10
2017-11-07T17:11:41.568Z,7.10
2017-11-07T17:14:08.454Z,7.20
2017-11-07T17:16:35.218Z,7.20
2017-11-07T17:19:01.978Z,7.20
2017-11-07T17:21:28.732Z,7.30
2017-11-07T17:23:55.486Z,7.30
2017-11-07T17:26:22.987Z,7.40
2017-11-07T17:28:49.768Z,7.40
2017-11-07T17:31:16.512Z,7.40
2017-11-07T17:33:43.302Z,7.40
2017-11-07T17:36:10.049Z,7.40
2017-11-07T17:38:36.801Z,7.40
2017-11-07T17:41:03.616Z,7.40
2017-11-07T17:43:30.365Z,7.30
2017-11-07T17:45:57.120Z,7.30
2017-11-07T17:48:23.878Z,7.30
2017-11-07T17:50:50.628Z,7.20
2017-11-07T17:53:17.383Z,7.20
2017-11-07T17:55:44.195Z,7.20
2017-11-07T17:58:10.946Z,7.20
2017-11-07T18:00:37.687Z,7.20
2017-11-07T18:03:04.429Z,7.20
2017-11-07T18:05:31.933Z,7.20
2017-11-07T18:07:58.697Z,7.20
2017-11-07T18:10:25.440Z,7.20
2017-11-07T18:12:52.223Z,7.20
2017-11-07T18:15:19.726Z,7.20
2017-11-07T18:17:46.466Z,7.10
2017-11-07T18:20:13.190Z,7.20
2017-11-07T18:22:39.956Z,7.20
2017-11-07T18:25:06.711Z,7.10
2017-11-07T18:27:34.957Z,7.00
2017-11-07T18:30:01.715Z,7.00
2017-11-07T18:32:28.524Z,7.10
2017-11-07T18:34:55.286Z,7.00
2017-11-07T18:37:22.026Z,7.00
2017-11-07T18:39:48.783Z,7.00
2017-11-07T18:42:16.334Z,6.90
2017-11-07T18:44:43.093Z,6.80
2017-11-07T18:47:09.853Z,6.90
2017-11-07T18:49:36.591Z,6.80
2017-11-07T18:52:03.345Z,6.80
2017-11-07T18:54:30.084Z,6.80
2017-11-07T18:56:56.856Z,6.80
2017-11-07T18:59:23.600Z,6.80
2017-11-07T19:01:50.490Z,6.80
2017-11-07T19:04:18.161Z,6.80
2017-11-07T19:06:44.891Z,6.80
2017-11-07T19:09:11.656Z,6.80
2017-11-07T19:11:38.417Z,6.80
2017-11-07T19:14:05.195Z,6.90
2017-11-07T19:16:32.662Z,7.00
2017-11-07T19:19:00.174Z,7.00
2017-11-07T19:21:26.951Z,6.90
2017-11-07T19:23:53.743Z,7.10
2017-11-07T19:26:20.518Z,7.10
2017-11-07T19:28:48.077Z,7.20
2017-11-07T19:31:15.701Z,7.30
2017-11-07T19:33:42.440Z,7.20
2017-11-07T19:36:09.193Z,7.20
2017-11-07T19:38:35.945Z,7.20
2017-11-07T19:41:02.761Z,7.30
2017-11-07T19:43:29.530Z,7.30
2017-11-07T19:45:57.053Z,7.30
2017-11-07T19:48:24.060Z,7.20
2017-11-07T19:50:51.558Z,7.30
2017-11-07T19:53:18.328Z,7.30
2017-11-07T19:55:45.089Z,7.30
2017-11-07T19:58:11.883Z,7.30
2017-11-07T20:00:38.677Z,7.30
2017-11-07T20:03:06.181Z,7.40
2017-11-07T20:05:32.929Z,7.30
2017-11-07T20:07:59.700Z,7.40
2017-11-07T20:10:26.444Z,7.40
2017-11-07T20:12:53.190Z,7.40
2017-11-07T20:15:19.966Z,7.40
2017-11-07T20:17:46.723Z,7.40
2017-11-07T20:20:13.466Z,7.30
2017-11-07T20:22:40.216Z,7.30
2017-11-07T20:25:06.940Z,7.30
2017-11-07T20:27:33.717Z,7.30
2017-11-07T20:30:00.535Z,7.30
2017-11-07T20:32:27.278Z,7.30
2017-11-07T20:34:54.827Z,7.20
2017-11-07T20:37:21.606Z,7.10
2017-11-07T20:39:48.374Z,7.20
2017-11-07T20:42:15.143Z,7.10
2017-11-07T20:44:42.670Z,7.10
2017-11-07T20:47:09.440Z,7.00
2017-11-07T20:49:36.952Z,7.10
2017-11-07T20:52:04.549Z,7.10
2017-11-07T20:54:31.316Z,7.00
2017-11-07T20:56:58.913Z,7.10
2017-11-07T20:59:25.641Z,7.00
2017-11-07T21:01:52.371Z,7.10
2017-11-07T21:04:19.168Z,7.00
2017-11-07T21:06:45.926Z,7.00
2017-11-07T21:09:13.426Z,6.80
2017-11-07T21:11:40.166Z,6.80
2017-11-07T21:14:06.952Z,6.80
2017-11-07T21:16:34.465Z,6.80
2017-11-07T21:19:01.216Z,6.70
2017-11-07T21:21:28.008Z,6.80
2017-11-07T21:23:55.508Z,6.80
2017-11-07T21:26:22.265Z,6.70
2017-11-07T21:28:49.022Z,6.80
2017-11-07T21:31:15.788Z,6.70
2017-11-07T21:33:42.526Z,6.70
2017-11-07T21:36:09.262Z,6.70
2017-11-07T21:38:36.029Z,6.80
2017-11-07T21:41:02.757Z,6.80
2017-11-07T21:43:29.508Z,6.80
2017-11-07T21:45:56.270Z,6.80
2017-11-07T21:48:23.015Z,6.70
2017-11-07T21:50:49.784Z,6.70
2017-11-07T21:53:16.519Z,6.60
2017-11-07T21:55:44.052Z,6.60
2017-11-07T21:58:10.807Z,6.50
2017-11-07T22:00:38.308Z,6.50
2017-11-07T22:03:05.054Z,6.50
2017-11-07T22:05:31.817Z,6.40
2017-11-07T22:07:58.568Z,6.40
2017-11-07T22:10:25.310Z,6.30
2017-11-07T22:12:52.049Z,6.30
2017-11-07T22:15:19.579Z,6.30
2017-11-07T22:17:46.313Z,6.20
2017-11-07T22:20:13.070Z,6.30
2017-11-07T22:22:39.936Z,6.30
2017-11-07T22:25:07.457Z,6.20
2017-11-07T22:27:34.189Z,6.20
2017-11-07T22:30:00.949Z,6.20
2017-11-07T22:32:27.752Z,6.20
2017-11-07T22:34:55.232Z,6.10
2017-11-07T22:37:21.973Z,6.00
2017-11-07T22:39:48.709Z,6.00
2017-11-07T22:42:15.466Z,6.00
2017-11-07T22:44:42.201Z,6.00
2017-11-07T22:47:10.462Z,5.80
2017-11-07T22:49:37.205Z,5.80
2017-11-07T22:52:03.968Z,5.80
2017-11-07T22:54:30.697Z,5.70
2017-11-07T22:56:57.444Z,5.70
2017-11-07T22:59:24.195Z,5.70
2017-11-07T23:01:50.952Z,5.70
2017-11-07T23:04:17.719Z,5.70
2017-11-07T23:06:44.468Z,5.70
2017-11-07T23:09:11.384Z,5.70
2017-11-07T23:11:38.121Z,5.80
2017-11-07T23:14:04.876Z,5.80
2017-11-07T23:16:31.606Z,5.90
2017-11-07T23:18:58.358Z,5.90
2017-11-07T23:21:25.096Z,6.00
2017-11-07T23:23:51.880Z,6.00
2017-11-07T23:26:18.654Z,6.00
2017-11-07T23:28:46.133Z,6.10
2017-11-07T23:31:12.893Z,6.10
2017-11-07T23:33:39.644Z,6.20
2017-11-07T23:36:06.415Z,6.20
2017-11-07T23:38:33.174Z,6.30
2017-11-07T23:40:59.893Z,6.30
2017-11-07T23:43:26.648Z,6.30
2017-11-07T23:45:53.403Z,6.30
2017-11-07T23:48:20.160Z,6.30
2017-11-07T23:50:46.897Z,6.40
2017-11-07T23:53:13.668Z,6.40
2017-11-07T23:55:41.160Z,6.40
2017-11-07T23:58:07.913Z,6.30
